sensor_id;sensor_type;location;lat;lon;timestamp;P1;durP1;ratioP1;P2;durP2;ratioP2
42964;SDS011;28604;51.204;22.552;2023-06-01T00:00:25;15.30;;;6.35;;
42964;SDS011;28604;51.204;22.552;2023-06-01T00:03:11;13.30;;;6.05;;
42964;SDS011;28604;51.204;22.552;2023-06-01T00:05:37;12.45;;;5.70;;
42964;SDS011;28604;51.204;22.552;2023-06-01T00:08:03;9.25;;;5.10;;
42964;SDS011;28604;51.204;22.552;2023-06-01T00:10:29;11.07;;;5.85;;
42964;SDS011;28604;51.204;22.552;2023-06-01T00:12:55;12.80;;;5.75;;
42964;SDS011;28604;51.204;22.552;2023-06-01T00:15:21;14.35;;;5.75;;
42964;SDS011;28604;51.204;22.552;2023-06-01T00:17:47;13.40;;;5.53;;
42964;SDS011;28604;51.204;22.552;2023-06-01T00:20:17;12.18;;;5.65;;
42964;SDS011;28604;51.204;22.552;2023-06-01T00:22:43;10.38;;;5.43;;
42964;SDS011;28604;51.204;22.552;2023-06-01T00:25:09;8.52;;;5.57;;
42964;SDS011;28604;51.204;22.552;2023-06-01T00:27:35;10.23;;;5.13;;
42964;SDS011;28604;51.204;22.552;2023-06-01T00:30:02;12.18;;;5.63;;
42964;SDS011;28604;51.204;22.552;2023-06-01T00:32:28;9.85;;;5.15;;
42964;SDS011;28604;51.204;22.552;2023-06-01T00:34:54;10.65;;;5.32;;
42964;SDS011;28604;51.204;22.552;2023-06-01T00:37:20;11.15;;;5.80;;
42964;SDS011;28604;51.204;22.552;2023-06-01T00:39:46;12.32;;;5.28;;
42964;SDS011;28604;51.204;22.552;2023-06-01T00:42:12;7.57;;;5.22;;
42964;SDS011;28604;51.204;22.552;2023-06-01T00:44:38;12.20;;;5.38;;
42964;SDS011;28604;51.204;22.552;2023-06-01T00:47:04;12.57;;;5.63;;
42964;SDS011;28604;51.204;22.552;2023-06-01T00:49:30;12.00;;;5.15;;
42964;SDS011;28604;51.204;22.552;2023-06-01T00:51:56;13.57;;;5.78;;
42964;SDS011;28604;51.204;22.552;2023-06-01T00:54:22;10.52;;;5.55;;
42964;SDS011;28604;51.204;22.552;2023-06-01T00:56:49;13.10;;;5.32;;
42964;SDS011;28604;51.204;22.552;2023-06-01T00:59:15;11.50;;;5.38;;
42964;SDS011;28604;51.204;22.552;2023-06-01T01:01:41;9.27;;;5.13;;
42964;SDS011;28604;51.204;22.552;2023-06-01T01:04:09;8.60;;;5.00;;
42964;SDS011;28604;51.204;22.552;2023-06-01T01:06:50;7.07;;;4.57;;
42964;SDS011;28604;51.204;22.552;2023-06-01T01:09:28;5.90;;;4.78;;
42964;SDS011;28604;51.204;22.552;2023-06-01T01:12:19;14.02;;;5.25;;
42964;SDS011;28604;51.204;22.552;2023-06-01T01:14:58;15.77;;;4.88;;
42964;SDS011;28604;51.204;22.552;2023-06-01T01:17:45;9.82;;;5.28;;
42964;SDS011;28604;51.204;22.552;2023-06-01T01:20:33;15.43;;;5.13;;
42964;SDS011;28604;51.204;22.552;2023-06-01T01:23:06;10.63;;;6.35;;
42964;SDS011;28604;51.204;22.552;2023-06-01T01:28:37;9.40;;;4.97;;
42964;SDS011;28604;51.204;22.552;2023-06-01T01:31:19;9.35;;;5.20;;
42964;SDS011;28604;51.204;22.552;2023-06-01T01:33:51;8.88;;;5.22;;
42964;SDS011;28604;51.204;22.552;2023-06-01T01:36:21;10.30;;;5.70;;
42964;SDS011;28604;51.204;22.552;2023-06-01T01:38:48;9.93;;;5.30;;
42964;SDS011;28604;51.204;22.552;2023-06-01T01:41:16;7.45;;;4.63;;
42964;SDS011;28604;51.204;22.552;2023-06-01T01:43:42;15.23;;;5.13;;
42964;SDS011;28604;51.204;22.552;2023-06-01T01:51:37;8.98;;;5.40;;
42964;SDS011;28604;51.204;22.552;2023-06-01T01:54:07;13.35;;;5.22;;
42964;SDS011;28604;51.204;22.552;2023-06-01T01:56:35;9.40;;;4.82;;
42964;SDS011;28604;51.204;22.552;2023-06-01T01:59:02;12.63;;;5.57;;
42964;SDS011;28604;51.204;22.552;2023-06-01T02:01:30;14.23;;;5.07;;
42964;SDS011;28604;51.204;22.552;2023-06-01T02:03:59;9.52;;;4.13;;
42964;SDS011;28604;51.204;22.552;2023-06-01T02:06:26;10.77;;;5.13;;
42964;SDS011;28604;51.204;22.552;2023-06-01T02:08:53;12.10;;;5.22;;
42964;SDS011;28604;51.204;22.552;2023-06-01T02:11:19;12.57;;;5.13;;
42964;SDS011;28604;51.204;22.552;2023-06-01T02:13:46;11.73;;;5.00;;
42964;SDS011;28604;51.204;22.552;2023-06-01T02:16:13;11.48;;;4.40;;
42964;SDS011;28604;51.204;22.552;2023-06-01T02:24:10;11.27;;;4.55;;
42964;SDS011;28604;51.204;22.552;2023-06-01T02:26:36;12.60;;;4.60;;
42964;SDS011;28604;51.204;22.552;2023-06-01T02:29:02;8.63;;;4.53;;
42964;SDS011;28604;51.204;22.552;2023-06-01T02:31:34;7.63;;;4.72;;
42964;SDS011;28604;51.204;22.552;2023-06-01T02:34:01;10.50;;;5.38;;
42964;SDS011;28604;51.204;22.552;2023-06-01T02:36:28;10.68;;;4.85;;
42964;SDS011;28604;51.204;22.552;2023-06-01T02:38:55;6.82;;;4.03;;
42964;SDS011;28604;51.204;22.552;2023-06-01T02:41:21;9.75;;;4.68;;
42964;SDS011;28604;51.204;22.552;2023-06-01T02:43:47;10.32;;;4.55;;
42964;SDS011;28604;51.204;22.552;2023-06-01T02:46:19;9.60;;;4.55;;
42964;SDS011;28604;51.204;22.552;2023-06-01T02:48:45;7.20;;;4.88;;
42964;SDS011;28604;51.204;22.552;2023-06-01T02:59:59;11.82;;;4.93;;
42964;SDS011;28604;51.204;22.552;2023-06-01T03:02:26;15.07;;;4.70;;
42964;SDS011;28604;51.204;22.552;2023-06-01T03:04:52;10.85;;;4.25;;
42964;SDS011;28604;51.204;22.552;2023-06-01T03:07:19;6.25;;;4.05;;
42964;SDS011;28604;51.204;22.552;2023-06-01T03:09:50;10.63;;;4.72;;
42964;SDS011;28604;51.204;22.552;2023-06-01T03:12:39;10.70;;;4.68;;
42964;SDS011;28604;51.204;22.552;2023-06-01T03:15:05;7.80;;;4.88;;
42964;SDS011;28604;51.204;22.552;2023-06-01T03:17:32;5.90;;;4.05;;
42964;SDS011;28604;51.204;22.552;2023-06-01T03:19:59;9.48;;;3.95;;
42964;SDS011;28604;51.204;22.552;2023-06-01T03:22:26;8.77;;;4.20;;
42964;SDS011;28604;51.204;22.552;2023-06-01T03:24:51;5.30;;;3.83;;
42964;SDS011;28604;51.204;22.552;2023-06-01T03:27:25;7.88;;;4.10;;
42964;SDS011;28604;51.204;22.552;2023-06-01T03:29:51;12.48;;;3.88;;
42964;SDS011;28604;51.204;22.552;2023-06-01T03:32:18;10.30;;;4.63;;
42964;SDS011;28604;51.204;22.552;2023-06-01T03:34:44;8.15;;;3.85;;
42964;SDS011;28604;51.204;22.552;2023-06-01T03:37:10;12.05;;;4.13;;
42964;SDS011;28604;51.204;22.552;2023-06-01T03:39:36;7.30;;;4.88;;
42964;SDS011;28604;51.204;22.552;2023-06-01T03:42:07;6.85;;;4.30;;
42964;SDS011;28604;51.204;22.552;2023-06-01T03:44:33;10.30;;;5.43;;
42964;SDS011;28604;51.204;22.552;2023-06-01T03:47:00;9.82;;;3.70;;
42964;SDS011;28604;51.204;22.552;2023-06-01T03:49:26;6.05;;;3.35;;
42964;SDS011;28604;51.204;22.552;2023-06-01T03:51:52;7.05;;;3.72;;
42964;SDS011;28604;51.204;22.552;2023-06-01T03:54:19;5.85;;;3.42;;
42964;SDS011;28604;51.204;22.552;2023-06-01T03:56:46;6.85;;;3.40;;
42964;SDS011;28604;51.204;22.552;2023-06-01T03:59:12;8.68;;;3.70;;
42964;SDS011;28604;51.204;22.552;2023-06-01T04:01:39;5.55;;;3.58;;
42964;SDS011;28604;51.204;22.552;2023-06-01T04:04:08;4.78;;;3.45;;
42964;SDS011;28604;51.204;22.552;2023-06-01T04:06:35;6.78;;;3.15;;
42964;SDS011;28604;51.204;22.552;2023-06-01T04:09:02;5.93;;;3.40;;
42964;SDS011;28604;51.204;22.552;2023-06-01T04:11:33;9.90;;;3.70;;
42964;SDS011;28604;51.204;22.552;2023-06-01T04:13:59;6.03;;;3.85;;
42964;SDS011;28604;51.204;22.552;2023-06-01T04:16:27;9.23;;;3.83;;
42964;SDS011;28604;51.204;22.552;2023-06-01T04:18:53;7.18;;;3.92;;
42964;SDS011;28604;51.204;22.552;2023-06-01T04:21:24;6.97;;;3.08;;
42964;SDS011;28604;51.204;22.552;2023-06-01T04:23:51;6.60;;;3.55;;
42964;SDS011;28604;51.204;22.552;2023-06-01T04:26:18;7.88;;;4.50;;
42964;SDS011;28604;51.204;22.552;2023-06-01T04:28:44;6.75;;;2.97;;
42964;SDS011;28604;51.204;22.552;2023-06-01T04:31:14;8.02;;;3.08;;
42964;SDS011;28604;51.204;22.552;2023-06-01T04:33:44;5.25;;;2.60;;
42964;SDS011;28604;51.204;22.552;2023-06-01T04:36:19;5.47;;;2.42;;
42964;SDS011;28604;51.204;22.552;2023-06-01T04:38:52;4.30;;;2.50;;
42964;SDS011;28604;51.204;22.552;2023-06-01T04:41:22;4.60;;;2.58;;
42964;SDS011;28604;51.204;22.552;2023-06-01T04:43:49;3.80;;;2.20;;
42964;SDS011;28604;51.204;22.552;2023-06-01T04:46:18;7.90;;;2.50;;
42964;SDS011;28604;51.204;22.552;2023-06-01T04:48:46;5.35;;;2.75;;
42964;SDS011;28604;51.204;22.552;2023-06-01T04:51:13;5.60;;;2.03;;
42964;SDS011;28604;51.204;22.552;2023-06-01T04:53:45;2.42;;;1.83;;
42964;SDS011;28604;51.204;22.552;2023-06-01T04:56:15;4.13;;;2.42;;
42964;SDS011;28604;51.204;22.552;2023-06-01T04:58:50;2.22;;;2.10;;
42964;SDS011;28604;51.204;22.552;2023-06-01T05:01:17;5.40;;;2.70;;
42964;SDS011;28604;51.204;22.552;2023-06-01T05:03:44;9.68;;;1.92;;
42964;SDS011;28604;51.204;22.552;2023-06-01T05:06:12;8.60;;;2.42;;
42964;SDS011;28604;51.204;22.552;2023-06-01T05:08:39;4.63;;;2.30;;
42964;SDS011;28604;51.204;22.552;2023-06-01T05:11:07;3.13;;;2.03;;
42964;SDS011;28604;51.204;22.552;2023-06-01T05:13:40;5.90;;;1.85;;
42964;SDS011;28604;51.204;22.552;2023-06-01T05:16:08;5.43;;;2.15;;
42964;SDS011;28604;51.204;22.552;2023-06-01T05:18:34;6.30;;;2.28;;
42964;SDS011;28604;51.204;22.552;2023-06-01T05:21:01;3.33;;;2.05;;
42964;SDS011;28604;51.204;22.552;2023-06-01T05:23:27;6.93;;;2.42;;
42964;SDS011;28604;51.204;22.552;2023-06-01T05:25:54;3.53;;;2.13;;
42964;SDS011;28604;51.204;22.552;2023-06-01T05:28:28;5.20;;;1.85;;
42964;SDS011;28604;51.204;22.552;2023-06-01T05:30:56;8.40;;;2.03;;
42964;SDS011;28604;51.204;22.552;2023-06-01T05:33:22;4.35;;;2.58;;
42964;SDS011;28604;51.204;22.552;2023-06-01T05:35:48;6.78;;;1.98;;
42964;SDS011;28604;51.204;22.552;2023-06-01T05:38:18;5.15;;;1.98;;
42964;SDS011;28604;51.204;22.552;2023-06-01T05:40:44;7.43;;;2.33;;
42964;SDS011;28604;51.204;22.552;2023-06-01T05:43:10;3.95;;;2.33;;
42964;SDS011;28604;51.204;22.552;2023-06-01T05:45:37;9.10;;;2.22;;
42964;SDS011;28604;51.204;22.552;2023-06-01T05:48:03;6.18;;;2.33;;
42964;SDS011;28604;51.204;22.552;2023-06-01T05:50:30;3.35;;;2.33;;
42964;SDS011;28604;51.204;22.552;2023-06-01T05:52:56;2.92;;;1.88;;
42964;SDS011;28604;51.204;22.552;2023-06-01T05:55:22;10.75;;;2.22;;
42964;SDS011;28604;51.204;22.552;2023-06-01T05:57:48;10.02;;;2.25;;
42964;SDS011;28604;51.204;22.552;2023-06-01T06:00:16;5.15;;;1.98;;
42964;SDS011;28604;51.204;22.552;2023-06-01T06:02:45;2.35;;;1.95;;
42964;SDS011;28604;51.204;22.552;2023-06-01T06:05:11;4.50;;;2.25;;
42964;SDS011;28604;51.204;22.552;2023-06-01T06:07:37;6.10;;;1.73;;
42964;SDS011;28604;51.204;22.552;2023-06-01T06:10:03;11.38;;;2.47;;
42964;SDS011;28604;51.204;22.552;2023-06-01T06:12:30;4.07;;;2.10;;
42964;SDS011;28604;51.204;22.552;2023-06-01T06:14:56;4.60;;;1.77;;
42964;SDS011;28604;51.204;22.552;2023-06-01T06:17:22;5.90;;;2.22;;
42964;SDS011;28604;51.204;22.552;2023-06-01T06:19:48;6.05;;;1.88;;
42964;SDS011;28604;51.204;22.552;2023-06-01T06:22:14;3.33;;;2.00;;
42964;SDS011;28604;51.204;22.552;2023-06-01T06:24:41;6.25;;;2.03;;
42964;SDS011;28604;51.204;22.552;2023-06-01T06:27:10;6.85;;;2.08;;
42964;SDS011;28604;51.204;22.552;2023-06-01T06:29:36;9.48;;;2.38;;
42964;SDS011;28604;51.204;22.552;2023-06-01T06:32:02;3.65;;;2.25;;
42964;SDS011;28604;51.204;22.552;2023-06-01T06:34:28;6.80;;;1.83;;
42964;SDS011;28604;51.204;22.552;2023-06-01T06:37:09;7.75;;;1.88;;
42964;SDS011;28604;51.204;22.552;2023-06-01T06:39:36;8.65;;;1.70;;
42964;SDS011;28604;51.204;22.552;2023-06-01T06:42:05;3.97;;;1.35;;
42964;SDS011;28604;51.204;22.552;2023-06-01T06:44:31;7.70;;;1.83;;
42964;SDS011;28604;51.204;22.552;2023-06-01T06:46:58;4.32;;;1.30;;
42964;SDS011;28604;51.204;22.552;2023-06-01T06:49:25;2.10;;;1.13;;
42964;SDS011;28604;51.204;22.552;2023-06-01T06:51:51;2.13;;;1.25;;
42964;SDS011;28604;51.204;22.552;2023-06-01T06:54:18;3.60;;;1.27;;
42964;SDS011;28604;51.204;22.552;2023-06-01T06:56:44;4.28;;;1.25;;
42964;SDS011;28604;51.204;22.552;2023-06-01T06:59:10;1.80;;;1.13;;
42964;SDS011;28604;51.204;22.552;2023-06-01T07:01:36;6.63;;;1.80;;
42964;SDS011;28604;51.204;22.552;2023-06-01T07:04:03;5.63;;;1.90;;
42964;SDS011;28604;51.204;22.552;2023-06-01T07:06:32;5.28;;;1.30;;
42964;SDS011;28604;51.204;22.552;2023-06-01T07:08:59;7.78;;;1.30;;
42964;SDS011;28604;51.204;22.552;2023-06-01T07:11:26;7.68;;;1.20;;
42964;SDS011;28604;51.204;22.552;2023-06-01T07:13:53;6.15;;;0.77;;
42964;SDS011;28604;51.204;22.552;2023-06-01T07:16:20;5.47;;;1.20;;
42964;SDS011;28604;51.204;22.552;2023-06-01T07:18:47;1.70;;;1.13;;
42964;SDS011;28604;51.204;22.552;2023-06-01T07:21:13;6.03;;;1.48;;
42964;SDS011;28604;51.204;22.552;2023-06-01T07:23:41;4.10;;;0.98;;
42964;SDS011;28604;51.204;22.552;2023-06-01T07:26:08;7.95;;;1.20;;
42964;SDS011;28604;51.204;22.552;2023-06-01T07:28:34;0.98;;;0.70;;
42964;SDS011;28604;51.204;22.552;2023-06-01T07:31:00;4.88;;;1.10;;
42964;SDS011;28604;51.204;22.552;2023-06-01T07:33:26;3.80;;;0.63;;
42964;SDS011;28604;51.204;22.552;2023-06-01T07:35:52;2.28;;;0.93;;
42964;SDS011;28604;51.204;22.552;2023-06-01T07:38:19;5.88;;;0.88;;
42964;SDS011;28604;51.204;22.552;2023-06-01T07:40:45;0.90;;;0.82;;
42964;SDS011;28604;51.204;22.552;2023-06-01T07:43:12;3.58;;;0.60;;
42964;SDS011;28604;51.204;22.552;2023-06-01T07:45:39;2.45;;;0.57;;
42964;SDS011;28604;51.204;22.552;2023-06-01T07:48:06;10.55;;;1.20;;
42964;SDS011;28604;51.204;22.552;2023-06-01T07:50:32;3.75;;;0.80;;
42964;SDS011;28604;51.204;22.552;2023-06-01T07:52:58;2.25;;;1.00;;
42964;SDS011;28604;51.204;22.552;2023-06-01T07:55:24;3.63;;;1.00;;
42964;SDS011;28604;51.204;22.552;2023-06-01T07:57:51;4.20;;;1.00;;
42964;SDS011;28604;51.204;22.552;2023-06-01T08:00:17;4.22;;;0.77;;
42964;SDS011;28604;51.204;22.552;2023-06-01T08:02:44;4.22;;;1.23;;
42964;SDS011;28604;51.204;22.552;2023-06-01T08:05:10;5.18;;;0.60;;
42964;SDS011;28604;51.204;22.552;2023-06-01T08:07:40;5.20;;;1.00;;
42964;SDS011;28604;51.204;22.552;2023-06-01T08:10:08;2.70;;;0.75;;
42964;SDS011;28604;51.204;22.552;2023-06-01T08:12:35;6.60;;;1.30;;
42964;SDS011;28604;51.204;22.552;2023-06-01T08:15:02;7.00;;;1.00;;
42964;SDS011;28604;51.204;22.552;2023-06-01T08:17:29;5.13;;;0.82;;
42964;SDS011;28604;51.204;22.552;2023-06-01T08:19:55;3.97;;;1.10;;
42964;SDS011;28604;51.204;22.552;2023-06-01T08:22:24;1.85;;;0.82;;
42964;SDS011;28604;51.204;22.552;2023-06-01T08:24:50;2.85;;;0.95;;
42964;SDS011;28604;51.204;22.552;2023-06-01T08:27:22;4.88;;;0.77;;
42964;SDS011;28604;51.204;22.552;2023-06-01T08:29:49;5.03;;;0.75;;
42964;SDS011;28604;51.204;22.552;2023-06-01T08:32:16;2.40;;;1.00;;
42964;SDS011;28604;51.204;22.552;2023-06-01T08:34:43;1.90;;;1.10;;
42964;SDS011;28604;51.204;22.552;2023-06-01T08:37:10;6.93;;;1.00;;
42964;SDS011;28604;51.204;22.552;2023-06-01T08:39:35;6.50;;;0.93;;
42964;SDS011;28604;51.204;22.552;2023-06-01T08:44:39;3.80;;;0.82;;
42964;SDS011;28604;51.204;22.552;2023-06-01T08:47:06;3.78;;;1.00;;
42964;SDS011;28604;51.204;22.552;2023-06-01T08:49:34;0.98;;;0.73;;
42964;SDS011;28604;51.204;22.552;2023-06-01T08:52:04;3.97;;;0.77;;
42964;SDS011;28604;51.204;22.552;2023-06-01T08:54:33;5.45;;;1.05;;
42964;SDS011;28604;51.204;22.552;2023-06-01T08:57:00;5.40;;;1.35;;
42964;SDS011;28604;51.204;22.552;2023-06-01T09:02:02;7.25;;;1.33;;
42964;SDS011;28604;51.204;22.552;2023-06-01T09:04:28;5.05;;;1.27;;
42964;SDS011;28604;51.204;22.552;2023-06-01T09:06:57;5.20;;;1.05;;
42964;SDS011;28604;51.204;22.552;2023-06-01T09:09:23;4.07;;;0.88;;
42964;SDS011;28604;51.204;22.552;2023-06-01T09:12:14;10.48;;;1.42;;
42964;SDS011;28604;51.204;22.552;2023-06-01T09:15:12;2.65;;;0.68;;
42964;SDS011;28604;51.204;22.552;2023-06-01T09:17:42;7.78;;;1.33;;
42964;SDS011;28604;51.204;22.552;2023-06-01T09:20:28;1.10;;;1.00;;
42964;SDS011;28604;51.204;22.552;2023-06-01T09:22:55;6.20;;;1.45;;
42964;SDS011;28604;51.204;22.552;2023-06-01T09:25:25;4.95;;;0.90;;
42964;SDS011;28604;51.204;22.552;2023-06-01T09:27:57;2.10;;;1.13;;
42964;SDS011;28604;51.204;22.552;2023-06-01T09:30:25;5.45;;;1.02;;
42964;SDS011;28604;51.204;22.552;2023-06-01T09:35:42;3.47;;;1.35;;
42964;SDS011;28604;51.204;22.552;2023-06-01T09:38:11;1.88;;;0.60;;
42964;SDS011;28604;51.204;22.552;2023-06-01T09:40:55;1.85;;;0.85;;
42964;SDS011;28604;51.204;22.552;2023-06-01T09:43:25;6.78;;;1.25;;
42964;SDS011;28604;51.204;22.552;2023-06-01T09:46:04;2.75;;;0.98;;
42964;SDS011;28604;51.204;22.552;2023-06-01T09:48:35;9.93;;;1.00;;
42964;SDS011;28604;51.204;22.552;2023-06-01T09:51:02;3.40;;;0.77;;
42964;SDS011;28604;51.204;22.552;2023-06-01T09:53:28;3.35;;;1.40;;
42964;SDS011;28604;51.204;22.552;2023-06-01T09:56:06;4.80;;;0.90;;
42964;SDS011;28604;51.204;22.552;2023-06-01T09:58:32;1.77;;;0.52;;
42964;SDS011;28604;51.204;22.552;2023-06-01T10:01:02;3.85;;;0.95;;
42964;SDS011;28604;51.204;22.552;2023-06-01T10:03:29;2.08;;;0.93;;
42964;SDS011;28604;51.204;22.552;2023-06-01T10:05:56;4.38;;;1.05;;
42964;SDS011;28604;51.204;22.552;2023-06-01T10:08:23;1.90;;;1.17;;
42964;SDS011;28604;51.204;22.552;2023-06-01T10:10:50;1.50;;;0.73;;
42964;SDS011;28604;51.204;22.552;2023-06-01T10:13:16;5.07;;;1.08;;
42964;SDS011;28604;51.204;22.552;2023-06-01T10:15:42;8.00;;;0.80;;
42964;SDS011;28604;51.204;22.552;2023-06-01T10:18:08;2.67;;;0.55;;
42964;SDS011;28604;51.204;22.552;2023-06-01T10:20:35;5.03;;;0.80;;
42964;SDS011;28604;51.204;22.552;2023-06-01T10:23:03;4.63;;;1.00;;
42964;SDS011;28604;51.204;22.552;2023-06-01T10:25:30;1.40;;;0.60;;
42964;SDS011;28604;51.204;22.552;2023-06-01T10:28:13;4.13;;;1.40;;
42964;SDS011;28604;51.204;22.552;2023-06-01T10:30:42;2.88;;;0.98;;
42964;SDS011;28604;51.204;22.552;2023-06-01T10:33:10;8.00;;;1.50;;
42964;SDS011;28604;51.204;22.552;2023-06-01T10:40:40;3.95;;;1.35;;
42964;SDS011;28604;51.204;22.552;2023-06-01T10:43:06;2.88;;;1.17;;
42964;SDS011;28604;51.204;22.552;2023-06-01T10:48:04;1.80;;;0.90;;
42964;SDS011;28604;51.204;22.552;2023-06-01T10:50:36;3.78;;;0.88;;
42964;SDS011;28604;51.204;22.552;2023-06-01T10:53:45;2.67;;;0.73;;
42964;SDS011;28604;51.204;22.552;2023-06-01T10:56:39;8.65;;;0.93;;
42964;SDS011;28604;51.204;22.552;2023-06-01T10:59:11;4.43;;;0.77;;
42964;SDS011;28604;51.204;22.552;2023-06-01T11:01:39;5.53;;;0.77;;
42964;SDS011;28604;51.204;22.552;2023-06-01T11:04:07;2.65;;;1.17;;
42964;SDS011;28604;51.204;22.552;2023-06-01T11:06:34;4.55;;;0.55;;
42964;SDS011;28604;51.204;22.552;2023-06-01T11:09:03;6.82;;;0.93;;
42964;SDS011;28604;51.204;22.552;2023-06-01T11:14:17;1.88;;;1.00;;
42964;SDS011;28604;51.204;22.552;2023-06-01T11:16:45;3.30;;;0.80;;
42964;SDS011;28604;51.204;22.552;2023-06-01T11:19:16;2.78;;;0.80;;
42964;SDS011;28604;51.204;22.552;2023-06-01T11:21:46;5.10;;;0.80;;
42964;SDS011;28604;51.204;22.552;2023-06-01T11:24:13;2.08;;;0.65;;
42964;SDS011;28604;51.204;22.552;2023-06-01T11:26:43;3.15;;;0.95;;
42964;SDS011;28604;51.204;22.552;2023-06-01T11:29:21;9.85;;;1.65;;
42964;SDS011;28604;51.204;22.552;2023-06-01T11:34:16;5.20;;;0.60;;
42964;SDS011;28604;51.204;22.552;2023-06-01T11:36:49;4.55;;;0.80;;
42964;SDS011;28604;51.204;22.552;2023-06-01T11:39:25;5.93;;;0.73;;
42964;SDS011;28604;51.204;22.552;2023-06-01T11:42:04;0.98;;;0.70;;
42964;SDS011;28604;51.204;22.552;2023-06-01T11:44:34;4.15;;;0.93;;
42964;SDS011;28604;51.204;22.552;2023-06-01T11:47:03;4.07;;;0.73;;
42964;SDS011;28604;51.204;22.552;2023-06-01T11:49:39;1.98;;;0.65;;
42964;SDS011;28604;51.204;22.552;2023-06-01T11:52:13;5.30;;;0.75;;
42964;SDS011;28604;51.204;22.552;2023-06-01T11:54:40;0.82;;;0.52;;
42964;SDS011;28604;51.204;22.552;2023-06-01T11:57:07;5.13;;;0.65;;
42964;SDS011;28604;51.204;22.552;2023-06-01T12:02:15;0.85;;;0.50;;
42964;SDS011;28604;51.204;22.552;2023-06-01T12:04:42;2.78;;;0.68;;
42964;SDS011;28604;51.204;22.552;2023-06-01T12:07:09;1.23;;;0.55;;
42964;SDS011;28604;51.204;22.552;2023-06-01T12:09:35;13.38;;;1.40;;
42964;SDS011;28604;51.204;22.552;2023-06-01T12:12:03;2.78;;;0.50;;
42964;SDS011;28604;51.204;22.552;2023-06-01T12:14:30;4.53;;;0.70;;
42964;SDS011;28604;51.204;22.552;2023-06-01T12:19:28;2.35;;;0.50;;
42964;SDS011;28604;51.204;22.552;2023-06-01T12:21:55;2.20;;;0.60;;
42964;SDS011;28604;51.204;22.552;2023-06-01T12:24:25;6.22;;;0.60;;
42964;SDS011;28604;51.204;22.552;2023-06-01T12:26:54;2.08;;;0.77;;
42964;SDS011;28604;51.204;22.552;2023-06-01T12:29:40;4.70;;;0.80;;
42964;SDS011;28604;51.204;22.552;2023-06-01T12:32:08;3.40;;;1.30;;
42964;SDS011;28604;51.204;22.552;2023-06-01T12:34:36;3.88;;;0.70;;
42964;SDS011;28604;51.204;22.552;2023-06-01T12:39:41;2.90;;;0.93;;
42964;SDS011;28604;51.204;22.552;2023-06-01T12:42:08;4.18;;;0.68;;
42964;SDS011;28604;51.204;22.552;2023-06-01T12:44:36;1.70;;;0.70;;
42964;SDS011;28604;51.204;22.552;2023-06-01T12:47:02;3.58;;;0.90;;
42964;SDS011;28604;51.204;22.552;2023-06-01T12:49:29;0.63;;;0.52;;
42964;SDS011;28604;51.204;22.552;2023-06-01T12:51:55;0.68;;;0.50;;
42964;SDS011;28604;51.204;22.552;2023-06-01T12:54:21;5.00;;;0.85;;
42964;SDS011;28604;51.204;22.552;2023-06-01T12:56:48;4.15;;;0.70;;
42964;SDS011;28604;51.204;22.552;2023-06-01T12:59:15;4.63;;;0.60;;
42964;SDS011;28604;51.204;22.552;2023-06-01T13:01:42;5.95;;;0.80;;
42964;SDS011;28604;51.204;22.552;2023-06-01T13:04:09;4.25;;;1.13;;
42964;SDS011;28604;51.204;22.552;2023-06-01T13:06:35;5.53;;;1.00;;
42964;SDS011;28604;51.204;22.552;2023-06-01T13:09:03;2.25;;;1.23;;
42964;SDS011;28604;51.204;22.552;2023-06-01T13:11:29;1.98;;;0.93;;
42964;SDS011;28604;51.204;22.552;2023-06-01T13:13:56;3.70;;;0.93;;
42964;SDS011;28604;51.204;22.552;2023-06-01T13:16:22;1.48;;;0.60;;
42964;SDS011;28604;51.204;22.552;2023-06-01T13:18:48;4.13;;;0.90;;
42964;SDS011;28604;51.204;22.552;2023-06-01T13:21:16;3.63;;;1.15;;
42964;SDS011;28604;51.204;22.552;2023-06-01T13:23:43;5.22;;;1.17;;
42964;SDS011;28604;51.204;22.552;2023-06-01T13:26:11;2.90;;;0.80;;
42964;SDS011;28604;51.204;22.552;2023-06-01T13:28:37;5.50;;;0.70;;
42964;SDS011;28604;51.204;22.552;2023-06-01T13:31:03;4.00;;;0.95;;
42964;SDS011;28604;51.204;22.552;2023-06-01T13:33:29;4.63;;;0.60;;
42964;SDS011;28604;51.204;22.552;2023-06-01T13:35:55;3.60;;;1.00;;
42964;SDS011;28604;51.204;22.552;2023-06-01T13:38:21;2.05;;;0.88;;
42964;SDS011;28604;51.204;22.552;2023-06-01T13:40:48;4.50;;;1.10;;
42964;SDS011;28604;51.204;22.552;2023-06-01T13:43:14;4.68;;;0.93;;
42964;SDS011;28604;51.204;22.552;2023-06-01T13:45:40;5.43;;;0.77;;
42964;SDS011;28604;51.204;22.552;2023-06-01T13:48:06;6.55;;;0.80;;
42964;SDS011;28604;51.204;22.552;2023-06-01T13:50:32;1.80;;;0.95;;
42964;SDS011;28604;51.204;22.552;2023-06-01T13:52:58;4.18;;;0.93;;
42964;SDS011;28604;51.204;22.552;2023-06-01T13:55:24;3.00;;;0.82;;
42964;SDS011;28604;51.204;22.552;2023-06-01T13:57:51;9.10;;;0.70;;
42964;SDS011;28604;51.204;22.552;2023-06-01T14:00:17;7.15;;;1.20;;
42964;SDS011;28604;51.204;22.552;2023-06-01T14:02:44;5.72;;;0.80;;
42964;SDS011;28604;51.204;22.552;2023-06-01T14:05:10;5.28;;;1.33;;
42964;SDS011;28604;51.204;22.552;2023-06-01T14:07:38;2.63;;;0.93;;
42964;SDS011;28604;51.204;22.552;2023-06-01T14:10:04;4.70;;;1.02;;
42964;SDS011;28604;51.204;22.552;2023-06-01T14:12:31;5.38;;;1.10;;
42964;SDS011;28604;51.204;22.552;2023-06-01T14:14:56;1.50;;;0.95;;
42964;SDS011;28604;51.204;22.552;2023-06-01T14:17:23;2.90;;;1.02;;
42964;SDS011;28604;51.204;22.552;2023-06-01T14:19:49;7.55;;;1.30;;
42964;SDS011;28604;51.204;22.552;2023-06-01T14:22:15;3.95;;;1.08;;
42964;SDS011;28604;51.204;22.552;2023-06-01T14:24:41;5.05;;;0.73;;
42964;SDS011;28604;51.204;22.552;2023-06-01T14:27:07;5.90;;;1.52;;
42964;SDS011;28604;51.204;22.552;2023-06-01T14:29:33;7.53;;;0.93;;
42964;SDS011;28604;51.204;22.552;2023-06-01T14:31:59;6.18;;;0.88;;
42964;SDS011;28604;51.204;22.552;2023-06-01T14:34:25;4.78;;;0.93;;
42964;SDS011;28604;51.204;22.552;2023-06-01T14:36:51;9.93;;;1.15;;
42964;SDS011;28604;51.204;22.552;2023-06-01T14:39:17;13.88;;;1.33;;
42964;SDS011;28604;51.204;22.552;2023-06-01T14:41:43;7.18;;;1.45;;
42964;SDS011;28604;51.204;22.552;2023-06-01T14:44:09;5.18;;;1.73;;
42964;SDS011;28604;51.204;22.552;2023-06-01T14:46:35;2.83;;;1.38;;
42964;SDS011;28604;51.204;22.552;2023-06-01T14:49:02;4.20;;;1.48;;
42964;SDS011;28604;51.204;22.552;2023-06-01T14:51:30;8.75;;;1.67;;
42964;SDS011;28604;51.204;22.552;2023-06-01T14:53:58;3.05;;;1.10;;
42964;SDS011;28604;51.204;22.552;2023-06-01T14:56:25;4.45;;;1.48;;
42964;SDS011;28604;51.204;22.552;2023-06-01T14:58:51;2.78;;;1.10;;
42964;SDS011;28604;51.204;22.552;2023-06-01T15:01:18;5.32;;;0.93;;
42964;SDS011;28604;51.204;22.552;2023-06-01T15:03:44;4.80;;;1.30;;
42964;SDS011;28604;51.204;22.552;2023-06-01T15:06:10;8.95;;;1.40;;
42964;SDS011;28604;51.204;22.552;2023-06-01T15:08:36;4.82;;;1.42;;
42964;SDS011;28604;51.204;22.552;2023-06-01T15:11:02;4.40;;;0.93;;
42964;SDS011;28604;51.204;22.552;2023-06-01T15:13:28;9.30;;;1.00;;
42964;SDS011;28604;51.204;22.552;2023-06-01T15:15:54;7.07;;;1.30;;
42964;SDS011;28604;51.204;22.552;2023-06-01T15:18:20;5.05;;;1.30;;
42964;SDS011;28604;51.204;22.552;2023-06-01T15:20:46;7.68;;;1.58;;
42964;SDS011;28604;51.204;22.552;2023-06-01T15:23:12;8.23;;;1.15;;
42964;SDS011;28604;51.204;22.552;2023-06-01T15:25:38;6.75;;;1.30;;
42964;SDS011;28604;51.204;22.552;2023-06-01T15:28:04;4.03;;;1.08;;
42964;SDS011;28604;51.204;22.552;2023-06-01T15:30:30;4.85;;;1.58;;